sensor_id;sensor_type;location;lat;lon;timestamp;temperature;humidity
74657;DHT22;63185;45.642;13.764;2022-10-17T00:00:43;18.50;71.30
74657;DHT22;63185;45.642;13.764;2022-10-17T00:03:09;18.50;71.10
74657;DHT22;63185;45.642;13.764;2022-10-17T00:05:47;18.50;71.10
74657;DHT22;63185;45.642;13.764;2022-10-17T00:08:15;18.40;70.80
74657;DHT22;63185;45.642;13.764;2022-10-17T00:10:41;18.40;70.90
74657;DHT22;63185;45.642;13.764;2022-10-17T00:13:09;18.40;70.70
74657;DHT22;63185;45.642;13.764;2022-10-17T00:15:35;18.40;70.80
74657;DHT22;63185;45.642;13.764;2022-10-17T00:18:02;18.40;70.80
74657;DHT22;63185;45.642;13.764;2022-10-17T00:20:27;18.30;70.90
74657;DHT22;63185;45.642;13.764;2022-10-17T00:22:55;18.40;70.80
74657;DHT22;63185;45.642;13.764;2022-10-17T00:25:21;18.40;70.80
74657;DHT22;63185;45.642;13.764;2022-10-17T00:27:46;18.40;70.80
74657;DHT22;63185;45.642;13.764;2022-10-17T00:30:14;18.30;71.10
74657;DHT22;63185;45.642;13.764;2022-10-17T00:32:40;18.30;71.40
74657;DHT22;63185;45.642;13.764;2022-10-17T00:35:07;18.30;71.60
74657;DHT22;63185;45.642;13.764;2022-10-17T00:37:33;18.30;71.60
74657;DHT22;63185;45.642;13.764;2022-10-17T00:39:59;18.30;71.80
74657;DHT22;63185;45.642;13.764;2022-10-17T00:42:25;18.30;71.70
74657;DHT22;63185;45.642;13.764;2022-10-17T00:47:30;18.30;71.70
74657;DHT22;63185;45.642;13.764;2022-10-17T00:49:57;18.30;71.70
74657;DHT22;63185;45.642;13.764;2022-10-17T00:52:25;18.30;71.70
74657;DHT22;63185;45.642;13.764;2022-10-17T00:55:41;18.40;71.60
74657;DHT22;63185;45.642;13.764;2022-10-17T00:57:48;18.30;71.80
74657;DHT22;63185;45.642;13.764;2022-10-17T01:00:15;18.30;71.70
74657;DHT22;63185;45.642;13.764;2022-10-17T01:02:42;18.40;71.50
74657;DHT22;63185;45.642;13.764;2022-10-17T01:05:08;18.40;71.50
74657;DHT22;63185;45.642;13.764;2022-10-17T01:07:35;18.40;71.60
74657;DHT22;63185;45.642;13.764;2022-10-17T01:10:02;18.30;71.70
74657;DHT22;63185;45.642;13.764;2022-10-17T01:24:07;18.30;71.80
74657;DHT22;63185;45.642;13.764;2022-10-17T01:26:54;18.30;72.00
74657;DHT22;63185;45.642;13.764;2022-10-17T01:35:11;18.20;71.70
74657;DHT22;63185;45.642;13.764;2022-10-17T01:37:48;18.20;71.40
74657;DHT22;63185;45.642;13.764;2022-10-17T01:40:23;18.20;71.30
74657;DHT22;63185;45.642;13.764;2022-10-17T01:43:13;18.20;70.50
74657;DHT22;63185;45.642;13.764;2022-10-17T01:45:52;18.20;70.80
74657;DHT22;63185;45.642;13.764;2022-10-17T01:48:24;18.20;70.30
74657;DHT22;63185;45.642;13.764;2022-10-17T01:50:53;18.10;70.30
74657;DHT22;63185;45.642;13.764;2022-10-17T01:53:35;18.10;70.20
74657;DHT22;63185;45.642;13.764;2022-10-17T01:56:02;18.20;69.90
74657;DHT22;63185;45.642;13.764;2022-10-17T01:58:35;18.10;69.90
74657;DHT22;63185;45.642;13.764;2022-10-17T02:01:04;18.20;69.70
74657;DHT22;63185;45.642;13.764;2022-10-17T02:03:31;18.20;69.90
74657;DHT22;63185;45.642;13.764;2022-10-17T02:05:59;18.10;70.20
74657;DHT22;63185;45.642;13.764;2022-10-17T02:08:39;18.10;70.30
74657;DHT22;63185;45.642;13.764;2022-10-17T02:11:25;18.10;70.60
74657;DHT22;63185;45.642;13.764;2022-10-17T02:14:17;18.10;70.90
74657;DHT22;63185;45.642;13.764;2022-10-17T02:17:05;18.00;71.10
74657;DHT22;63185;45.642;13.764;2022-10-17T02:22:34;17.90;71.60
74657;DHT22;63185;45.642;13.764;2022-10-17T02:30:00;17.90;71.90
74657;DHT22;63185;45.642;13.764;2022-10-17T02:35:00;17.90;72.00
74657;DHT22;63185;45.642;13.764;2022-10-17T02:37:27;17.90;72.00
74657;DHT22;63185;45.642;13.764;2022-10-17T02:39:56;17.90;72.20
74657;DHT22;63185;45.642;13.764;2022-10-17T02:42:23;17.90;72.00
74657;DHT22;63185;45.642;13.764;2022-10-17T02:44:50;17.90;72.00
74657;DHT22;63185;45.642;13.764;2022-10-17T02:51:11;17.80;71.70
74657;DHT22;63185;45.642;13.764;2022-10-17T02:56:18;17.90;71.50
74657;DHT22;63185;45.642;13.764;2022-10-17T02:58:49;17.90;71.40
74657;DHT22;63185;45.642;13.764;2022-10-17T03:01:17;17.90;71.50
74657;DHT22;63185;45.642;13.764;2022-10-17T03:03:43;17.80;71.80
74657;DHT22;63185;45.642;13.764;2022-10-17T03:06:09;17.80;71.80
74657;DHT22;63185;45.642;13.764;2022-10-17T03:08:35;17.80;71.80
74657;DHT22;63185;45.642;13.764;2022-10-17T03:11:00;17.90;71.70
74657;DHT22;63185;45.642;13.764;2022-10-17T03:13:28;17.80;71.70
74657;DHT22;63185;45.642;13.764;2022-10-17T03:15:55;17.70;71.80
74657;DHT22;63185;45.642;13.764;2022-10-17T03:18:21;17.70;72.10
74657;DHT22;63185;45.642;13.764;2022-10-17T03:20:47;17.80;72.00
74657;DHT22;63185;45.642;13.764;2022-10-17T03:23:12;17.70;72.20
74657;DHT22;63185;45.642;13.764;2022-10-17T03:25:38;17.70;72.30
74657;DHT22;63185;45.642;13.764;2022-10-17T03:28:04;17.70;72.20
74657;DHT22;63185;45.642;13.764;2022-10-17T03:30:30;17.70;72.20
74657;DHT22;63185;45.642;13.764;2022-10-17T03:32:57;17.70;72.20
74657;DHT22;63185;45.642;13.764;2022-10-17T03:35:23;17.70;72.20
74657;DHT22;63185;45.642;13.764;2022-10-17T03:37:49;17.70;72.50
74657;DHT22;63185;45.642;13.764;2022-10-17T03:40:15;17.70;72.60
74657;DHT22;63185;45.642;13.764;2022-10-17T03:42:41;17.70;72.40
74657;DHT22;63185;45.642;13.764;2022-10-17T03:45:07;17.70;72.50
74657;DHT22;63185;45.642;13.764;2022-10-17T03:47:32;17.70;72.50
74657;DHT22;63185;45.642;13.764;2022-10-17T03:49:58;17.70;72.50
74657;DHT22;63185;45.642;13.764;2022-10-17T03:52:24;17.70;72.50
74657;DHT22;63185;45.642;13.764;2022-10-17T03:54:49;17.80;72.40
74657;DHT22;63185;45.642;13.764;2022-10-17T03:57:16;17.80;72.40
74657;DHT22;63185;45.642;13.764;2022-10-17T03:59:42;17.90;72.10
74657;DHT22;63185;45.642;13.764;2022-10-17T04:02:08;17.90;72.10
74657;DHT22;63185;45.642;13.764;2022-10-17T04:04:33;17.90;72.20
74657;DHT22;63185;45.642;13.764;2022-10-17T04:06:59;17.80;72.40
74657;DHT22;63185;45.642;13.764;2022-10-17T04:09:25;17.80;72.40
74657;DHT22;63185;45.642;13.764;2022-10-17T04:11:50;17.80;72.60
74657;DHT22;63185;45.642;13.764;2022-10-17T04:14:16;17.70;73.20
74657;DHT22;63185;45.642;13.764;2022-10-17T04:16:42;17.80;75.40
74657;DHT22;63185;45.642;13.764;2022-10-17T04:19:11;17.90;73.40
74657;DHT22;63185;45.642;13.764;2022-10-17T04:21:37;17.90;73.00
74657;DHT22;63185;45.642;13.764;2022-10-17T04:24:03;17.80;72.70
74657;DHT22;63185;45.642;13.764;2022-10-17T04:26:29;17.80;72.80
74657;DHT22;63185;45.642;13.764;2022-10-17T04:28:55;17.80;72.70
74657;DHT22;63185;45.642;13.764;2022-10-17T04:31:20;17.90;72.80
74657;DHT22;63185;45.642;13.764;2022-10-17T04:33:47;17.80;73.20
74657;DHT22;63185;45.642;13.764;2022-10-17T04:36:16;17.90;73.90
74657;DHT22;63185;45.642;13.764;2022-10-17T04:38:42;17.90;72.90
74657;DHT22;63185;45.642;13.764;2022-10-17T04:41:11;17.90;72.60
74657;DHT22;63185;45.642;13.764;2022-10-17T04:43:37;17.90;72.50
74657;DHT22;63185;45.642;13.764;2022-10-17T04:46:06;17.80;72.50
74657;DHT22;63185;45.642;13.764;2022-10-17T04:48:32;17.80;72.70
74657;DHT22;63185;45.642;13.764;2022-10-17T04:51:03;17.70;73.00
74657;DHT22;63185;45.642;13.764;2022-10-17T04:53:31;17.60;73.20
74657;DHT22;63185;45.642;13.764;2022-10-17T04:55:57;17.70;73.10
74657;DHT22;63185;45.642;13.764;2022-10-17T04:58:23;17.70;73.20
74657;DHT22;63185;45.642;13.764;2022-10-17T05:00:49;17.60;73.30
74657;DHT22;63185;45.642;13.764;2022-10-17T05:03:14;17.60;73.50
74657;DHT22;63185;45.642;13.764;2022-10-17T05:05:41;17.60;73.50
74657;DHT22;63185;45.642;13.764;2022-10-17T05:08:08;17.50;73.60
74657;DHT22;63185;45.642;13.764;2022-10-17T05:10:39;17.50;73.60
74657;DHT22;63185;45.642;13.764;2022-10-17T05:13:05;17.50;73.60
74657;DHT22;63185;45.642;13.764;2022-10-17T05:15:31;17.50;73.40
74657;DHT22;63185;45.642;13.764;2022-10-17T05:17:57;17.50;73.60
74657;DHT22;63185;45.642;13.764;2022-10-17T05:20:25;17.50;73.50
74657;DHT22;63185;45.642;13.764;2022-10-17T05:22:51;17.50;73.50
74657;DHT22;63185;45.642;13.764;2022-10-17T05:25:17;17.50;73.80
74657;DHT22;63185;45.642;13.764;2022-10-17T05:27:43;17.50;73.70
74657;DHT22;63185;45.642;13.764;2022-10-17T05:30:09;17.50;73.50
74657;DHT22;63185;45.642;13.764;2022-10-17T05:32:35;17.50;73.60
74657;DHT22;63185;45.642;13.764;2022-10-17T05:35:00;17.50;73.50
74657;DHT22;63185;45.642;13.764;2022-10-17T05:37:29;17.60;73.30
74657;DHT22;63185;45.642;13.764;2022-10-17T05:39:55;17.60;73.10
74657;DHT22;63185;45.642;13.764;2022-10-17T05:42:21;17.60;72.90
74657;DHT22;63185;45.642;13.764;2022-10-17T05:44:46;17.60;73.00
74657;DHT22;63185;45.642;13.764;2022-10-17T05:47:12;17.60;72.70
74657;DHT22;63185;45.642;13.764;2022-10-17T05:49:38;17.70;72.40
74657;DHT22;63185;45.642;13.764;2022-10-17T05:52:03;17.70;71.90
74657;DHT22;63185;45.642;13.764;2022-10-17T05:54:29;17.70;71.80
74657;DHT22;63185;45.642;13.764;2022-10-17T05:56:56;17.80;71.60
74657;DHT22;63185;45.642;13.764;2022-10-17T05:59:24;17.90;71.40
74657;DHT22;63185;45.642;13.764;2022-10-17T06:01:50;17.90;71.20
74657;DHT22;63185;45.642;13.764;2022-10-17T06:04:16;17.90;71.20
74657;DHT22;63185;45.642;13.764;2022-10-17T06:06:41;17.90;71.30
74657;DHT22;63185;45.642;13.764;2022-10-17T06:09:07;17.90;71.30
74657;DHT22;63185;45.642;13.764;2022-10-17T06:11:34;17.90;71.30
74657;DHT22;63185;45.642;13.764;2022-10-17T06:14:00;18.00;71.30
74657;DHT22;63185;45.642;13.764;2022-10-17T06:16:26;18.00;71.20
74657;DHT22;63185;45.642;13.764;2022-10-17T06:18:51;18.00;71.10
74657;DHT22;63185;45.642;13.764;2022-10-17T06:21:21;18.00;71.40
74657;DHT22;63185;45.642;13.764;2022-10-17T06:23:46;18.00;71.20
74657;DHT22;63185;45.642;13.764;2022-10-17T06:26:12;18.00;71.30
74657;DHT22;63185;45.642;13.764;2022-10-17T06:28:38;18.10;71.00
74657;DHT22;63185;45.642;13.764;2022-10-17T06:31:09;18.10;71.00
74657;DHT22;63185;45.642;13.764;2022-10-17T06:33:35;18.20;71.10
74657;DHT22;63185;45.642;13.764;2022-10-17T06:36:02;18.20;71.00
74657;DHT22;63185;45.642;13.764;2022-10-17T06:38:28;18.20;70.60
74657;DHT22;63185;45.642;13.764;2022-10-17T06:40:53;18.20;70.20
74657;DHT22;63185;45.642;13.764;2022-10-17T06:43:22;18.30;69.80
74657;DHT22;63185;45.642;13.764;2022-10-17T06:45:48;18.40;69.30
74657;DHT22;63185;45.642;13.764;2022-10-17T06:48:13;18.40;69.20
74657;DHT22;63185;45.642;13.764;2022-10-17T06:50:39;18.50;69.00
74657;DHT22;63185;45.642;13.764;2022-10-17T06:53:05;18.50;68.10
74657;DHT22;63185;45.642;13.764;2022-10-17T06:55:31;18.60;68.30
74657;DHT22;63185;45.642;13.764;2022-10-17T06:57:57;18.60;68.20
74657;DHT22;63185;45.642;13.764;2022-10-17T07:00:23;18.60;68.30
74657;DHT22;63185;45.642;13.764;2022-10-17T07:02:51;18.80;68.00
74657;DHT22;63185;45.642;13.764;2022-10-17T07:05:17;18.90;67.30
74657;DHT22;63185;45.642;13.764;2022-10-17T07:07:44;19.00;66.90
74657;DHT22;63185;45.642;13.764;2022-10-17T07:10:09;19.20;66.60
74657;DHT22;63185;45.642;13.764;2022-10-17T07:12:35;19.20;66.50
74657;DHT22;63185;45.642;13.764;2022-10-17T07:15:01;19.40;66.00
74657;DHT22;63185;45.642;13.764;2022-10-17T07:17:29;19.40;66.10
74657;DHT22;63185;45.642;13.764;2022-10-17T07:19:55;19.50;65.90
74657;DHT22;63185;45.642;13.764;2022-10-17T07:22:20;19.60;65.70
74657;DHT22;63185;45.642;13.764;2022-10-17T07:24:46;19.60;65.80
74657;DHT22;63185;45.642;13.764;2022-10-17T07:27:12;19.60;65.80
74657;DHT22;63185;45.642;13.764;2022-10-17T07:29:38;19.60;66.10
74657;DHT22;63185;45.642;13.764;2022-10-17T07:32:04;19.60;66.20
74657;DHT22;63185;45.642;13.764;2022-10-17T07:34:33;19.60;65.80
74657;DHT22;63185;45.642;13.764;2022-10-17T07:36:59;19.70;65.50
74657;DHT22;63185;45.642;13.764;2022-10-17T07:39:25;19.80;65.50
74657;DHT22;63185;45.642;13.764;2022-10-17T07:41:51;19.80;64.60
74657;DHT22;63185;45.642;13.764;2022-10-17T07:44:16;19.90;64.90
74657;DHT22;63185;45.642;13.764;2022-10-17T07:46:42;19.90;65.30
74657;DHT22;63185;45.642;13.764;2022-10-17T07:49:08;20.00;64.70
74657;DHT22;63185;45.642;13.764;2022-10-17T07:51:34;20.10;64.60
74657;DHT22;63185;45.642;13.764;2022-10-17T07:53:59;20.10;64.60
74657;DHT22;63185;45.642;13.764;2022-10-17T07:56:25;20.10;64.60
74657;DHT22;63185;45.642;13.764;2022-10-17T07:58:51;20.30;62.80
74657;DHT22;63185;45.642;13.764;2022-10-17T08:01:17;20.40;61.90
74657;DHT22;63185;45.642;13.764;2022-10-17T08:03:44;20.50;61.40
74657;DHT22;63185;45.642;13.764;2022-10-17T08:06:10;20.60;61.00
74657;DHT22;63185;45.642;13.764;2022-10-17T08:08:36;20.50;61.30
74657;DHT22;63185;45.642;13.764;2022-10-17T08:11:07;20.50;61.50
74657;DHT22;63185;45.642;13.764;2022-10-17T08:13:34;20.40;62.70
74657;DHT22;63185;45.642;13.764;2022-10-17T08:16:01;20.30;62.00
74657;DHT22;63185;45.642;13.764;2022-10-17T08:18:27;20.30;63.10
74657;DHT22;63185;45.642;13.764;2022-10-17T08:20:53;20.30;63.30
74657;DHT22;63185;45.642;13.764;2022-10-17T08:23:19;20.40;62.80
74657;DHT22;63185;45.642;13.764;2022-10-17T08:25:45;20.30;62.60
74657;DHT22;63185;45.642;13.764;2022-10-17T08:28:10;20.20;62.40
74657;DHT22;63185;45.642;13.764;2022-10-17T08:30:36;20.20;62.30
74657;DHT22;63185;45.642;13.764;2022-10-17T08:33:02;20.30;62.10
74657;DHT22;63185;45.642;13.764;2022-10-17T08:35:28;20.40;62.20
74657;DHT22;63185;45.642;13.764;2022-10-17T08:37:53;20.50;61.40
74657;DHT22;63185;45.642;13.764;2022-10-17T08:40:23;20.60;61.40
74657;DHT22;63185;45.642;13.764;2022-10-17T08:43:20;20.70;61.10
74657;DHT22;63185;45.642;13.764;2022-10-17T08:45:59;20.90;60.30
74657;DHT22;63185;45.642;13.764;2022-10-17T08:48:29;21.10;60.20
74657;DHT22;63185;45.642;13.764;2022-10-17T08:51:02;21.10;60.00
74657;DHT22;63185;45.642;13.764;2022-10-17T08:53:35;21.30;59.80
74657;DHT22;63185;45.642;13.764;2022-10-17T08:56:10;21.40;59.30
74657;DHT22;63185;45.642;13.764;2022-10-17T08:58:38;21.40;59.30
74657;DHT22;63185;45.642;13.764;2022-10-17T09:01:19;21.50;59.20
74657;DHT22;63185;45.642;13.764;2022-10-17T09:06:44;21.60;60.30
74657;DHT22;63185;45.642;13.764;2022-10-17T09:19:37;21.60;61.50
74657;DHT22;63185;45.642;13.764;2022-10-17T09:22:16;21.70;61.60
74657;DHT22;63185;45.642;13.764;2022-10-17T09:24:52;21.60;61.20
74657;DHT22;63185;45.642;13.764;2022-10-17T09:27:24;21.50;62.30
74657;DHT22;63185;45.642;13.764;2022-10-17T09:29:54;21.40;62.80
74657;DHT22;63185;45.642;13.764;2022-10-17T09:32:23;21.60;62.60
74657;DHT22;63185;45.642;13.764;2022-10-17T09:34:51;21.60;62.60
74657;DHT22;63185;45.642;13.764;2022-10-17T09:37:17;21.50;62.50
74657;DHT22;63185;45.642;13.764;2022-10-17T09:39:44;21.40;62.90
74657;DHT22;63185;45.642;13.764;2022-10-17T09:42:14;21.40;63.00
74657;DHT22;63185;45.642;13.764;2022-10-17T09:45:10;21.60;62.60
74657;DHT22;63185;45.642;13.764;2022-10-17T09:50:30;21.70;62.50
74657;DHT22;63185;45.642;13.764;2022-10-17T09:53:00;21.50;63.40
74657;DHT22;63185;45.642;13.764;2022-10-17T09:55:54;21.40;63.70
74657;DHT22;63185;45.642;13.764;2022-10-17T09:58:21;21.50;63.90
74657;DHT22;63185;45.642;13.764;2022-10-17T10:00:47;21.30;64.00
74657;DHT22;63185;45.642;13.764;2022-10-17T10:05:39;21.40;64.60
74657;DHT22;63185;45.642;13.764;2022-10-17T10:08:16;21.60;64.40
74657;DHT22;63185;45.642;13.764;2022-10-17T10:10:43;21.60;64.40
74657;DHT22;63185;45.642;13.764;2022-10-17T10:18:35;21.80;62.50
74657;DHT22;63185;45.642;13.764;2022-10-17T10:21:08;21.90;63.10
74657;DHT22;63185;45.642;13.764;2022-10-17T10:23:35;22.10;63.20
74657;DHT22;63185;45.642;13.764;2022-10-17T10:26:31;22.10;62.60
74657;DHT22;63185;45.642;13.764;2022-10-17T10:29:03;22.00;62.40
74657;DHT22;63185;45.642;13.764;2022-10-17T10:31:35;21.90;63.00
74657;DHT22;63185;45.642;13.764;2022-10-17T10:34:31;22.00;62.90
74657;DHT22;63185;45.642;13.764;2022-10-17T10:37:01;22.10;62.80
74657;DHT22;63185;45.642;13.764;2022-10-17T10:39:54;22.10;61.40
74657;DHT22;63185;45.642;13.764;2022-10-17T10:42:33;22.10;62.00
74657;DHT22;63185;45.642;13.764;2022-10-17T10:47:53;22.10;63.20
74657;DHT22;63185;45.642;13.764;2022-10-17T10:50:24;22.10;63.30
74657;DHT22;63185;45.642;13.764;2022-10-17T11:04:36;22.10;63.00
74657;DHT22;63185;45.642;13.764;2022-10-17T11:07:20;21.90;62.70
74657;DHT22;63185;45.642;13.764;2022-10-17T11:10:16;22.00;62.60
74657;DHT22;63185;45.642;13.764;2022-10-17T11:12:51;22.00;62.20
74657;DHT22;63185;45.642;13.764;2022-10-17T11:15:20;21.90;62.20
74657;DHT22;63185;45.642;13.764;2022-10-17T11:18:02;22.10;62.30
74657;DHT22;63185;45.642;13.764;2022-10-17T11:25:46;21.90;61.70
74657;DHT22;63185;45.642;13.764;2022-10-17T11:28:21;22.10;61.50
74657;DHT22;63185;45.642;13.764;2022-10-17T11:31:09;22.10;61.90
74657;DHT22;63185;45.642;13.764;2022-10-17T11:33:55;22.10;61.80
74657;DHT22;63185;45.642;13.764;2022-10-17T11:36:30;22.00;61.10
74657;DHT22;63185;45.642;13.764;2022-10-17T11:39:01;22.00;62.00
74657;DHT22;63185;45.642;13.764;2022-10-17T11:41:36;22.10;61.60
74657;DHT22;63185;45.642;13.764;2022-10-17T11:44:21;22.30;60.70
74657;DHT22;63185;45.642;13.764;2022-10-17T11:46:56;22.40;60.50
74657;DHT22;63185;45.642;13.764;2022-10-17T11:49:36;22.50;60.00
74657;DHT22;63185;45.642;13.764;2022-10-17T11:54:52;22.60;59.00
74657;DHT22;63185;45.642;13.764;2022-10-17T12:03:38;22.60;58.20
74657;DHT22;63185;45.642;13.764;2022-10-17T12:06:23;22.50;57.50
74657;DHT22;63185;45.642;13.764;2022-10-17T12:09:00;22.70;58.40
74657;DHT22;63185;45.642;13.764;2022-10-17T12:11:49;22.70;59.70
74657;DHT22;63185;45.642;13.764;2022-10-17T12:17:04;23.00;58.90
74657;DHT22;63185;45.642;13.764;2022-10-17T12:19:36;23.10;58.70
74657;DHT22;63185;45.642;13.764;2022-10-17T12:24:43;23.00;57.80
74657;DHT22;63185;45.642;13.764;2022-10-17T12:27:41;22.80;58.90
74657;DHT22;63185;45.642;13.764;2022-10-17T12:30:22;22.60;60.00
74657;DHT22;63185;45.642;13.764;2022-10-17T12:33:00;22.40;61.30
74657;DHT22;63185;45.642;13.764;2022-10-17T12:35:28;22.40;61.50
74657;DHT22;63185;45.642;13.764;2022-10-17T12:51:13;22.90;60.30
74657;DHT22;63185;45.642;13.764;2022-10-17T12:53:48;22.80;60.80
74657;DHT22;63185;45.642;13.764;2022-10-17T12:56:19;22.90;62.50
74657;DHT22;63185;45.642;13.764;2022-10-17T12:58:48;23.00;61.50
74657;DHT22;63185;45.642;13.764;2022-10-17T13:01:26;23.10;60.90
74657;DHT22;63185;45.642;13.764;2022-10-17T13:03:54;23.10;59.20
74657;DHT22;63185;45.642;13.764;2022-10-17T13:06:31;23.10;59.70
74657;DHT22;63185;45.642;13.764;2022-10-17T13:09:08;23.20;60.90
74657;DHT22;63185;45.642;13.764;2022-10-17T13:11:40;23.30;62.30
74657;DHT22;63185;45.642;13.764;2022-10-17T13:14:12;23.40;62.60
74657;DHT22;63185;45.642;13.764;2022-10-17T13:16:49;23.50;61.70
74657;DHT22;63185;45.642;13.764;2022-10-17T13:19:21;23.60;59.40
74657;DHT22;63185;45.642;13.764;2022-10-17T13:21:53;23.50;60.60
74657;DHT22;63185;45.642;13.764;2022-10-17T13:24:38;23.60;60.60
74657;DHT22;63185;45.642;13.764;2022-10-17T13:27:06;23.40;60.00
74657;DHT22;63185;45.642;13.764;2022-10-17T13:29:45;23.50;60.20
74657;DHT22;63185;45.642;13.764;2022-10-17T13:32:11;23.60;58.30
74657;DHT22;63185;45.642;13.764;2022-10-17T13:34:37;23.50;57.40
74657;DHT22;63185;45.642;13.764;2022-10-17T13:37:11;23.60;58.60
74657;DHT22;63185;45.642;13.764;2022-10-17T13:39:42;23.60;57.40
74657;DHT22;63185;45.642;13.764;2022-10-17T13:42:28;23.50;56.10
74657;DHT22;63185;45.642;13.764;2022-10-17T13:44:56;23.10;55.30
74657;DHT22;63185;45.642;13.764;2022-10-17T13:47:24;23.10;58.00
74657;DHT22;63185;45.642;13.764;2022-10-17T13:49:51;23.30;59.70
74657;DHT22;63185;45.642;13.764;2022-10-17T13:52:19;23.40;60.50
74657;DHT22;63185;45.642;13.764;2022-10-17T13:54:48;23.60;61.80
74657;DHT22;63185;45.642;13.764;2022-10-17T13:57:35;23.60;61.90
74657;DHT22;63185;45.642;13.764;2022-10-17T14:00:18;23.70;60.90
74657;DHT22;63185;45.642;13.764;2022-10-17T14:02:44;23.90;60.50
74657;DHT22;63185;45.642;13.764;2022-10-17T14:05:14;24.10;59.40
74657;DHT22;63185;45.642;13.764;2022-10-17T14:07:50;24.00;59.50
74657;DHT22;63185;45.642;13.764;2022-10-17T14:10:26;24.10;59.10
74657;DHT22;63185;45.642;13.764;2022-10-17T14:12:54;24.10;59.30
74657;DHT22;63185;45.642;13.764;2022-10-17T14:15:23;23.60;60.20
74657;DHT22;63185;45.642;13.764;2022-10-17T14:17:58;23.70;60.30
74657;DHT22;63185;45.642;13.764;2022-10-17T14:20:25;23.90;59.90
74657;DHT22;63185;45.642;13.764;2022-10-17T14:22:57;24.00;58.00
74657;DHT22;63185;45.642;13.764;2022-10-17T14:25:35;23.80;58.40
74657;DHT22;63185;45.642;13.764;2022-10-17T14:30:44;24.00;58.30
74657;DHT22;63185;45.642;13.764;2022-10-17T14:33:14;24.30;57.80
74657;DHT22;63185;45.642;13.764;2022-10-17T14:35:56;24.40;58.20
74657;DHT22;63185;45.642;13.764;2022-10-17T14:38:22;24.30;58.60
74657;DHT22;63185;45.642;13.764;2022-10-17T14:40:57;24.20;58.80
74657;DHT22;63185;45.642;13.764;2022-10-17T14:43:26;24.40;58.90
74657;DHT22;63185;45.642;13.764;2022-10-17T14:45:56;24.60;58.50
74657;DHT22;63185;45.642;13.764;2022-10-17T14:48:24;24.80;56.50
74657;DHT22;63185;45.642;13.764;2022-10-17T14:51:10;25.10;55.60
74657;DHT22;63185;45.642;13.764;2022-10-17T14:53:38;25.60;56.40
74657;DHT22;63185;45.642;13.764;2022-10-17T14:56:25;26.40;54.80
74657;DHT22;63185;45.642;13.764;2022-10-17T14:58:51;27.10;52.30
74657;DHT22;63185;45.642;13.764;2022-10-17T15:01:17;27.80;51.00
74657;DHT22;63185;45.642;13.764;2022-10-17T15:03:43;28.40;49.90
74657;DHT22;63185;45.642;13.764;2022-10-17T15:06:20;29.10;48.30
74657;DHT22;63185;45.642;13.764;2022-10-17T15:08:47;29.30;47.80
74657;DHT22;63185;45.642;13.764;2022-10-17T15:11:13;29.30;47.20
74657;DHT22;63185;45.642;13.764;2022-10-17T15:13:39;28.60;48.40
74657;DHT22;63185;45.642;13.764;2022-10-17T15:16:25;28.40;48.50
74657;DHT22;63185;45.642;13.764;2022-10-17T15:18:52;28.20;49.00
74657;DHT22;63185;45.642;13.764;2022-10-17T15:21:20;28.10;49.20
74657;DHT22;63185;45.642;13.764;2022-10-17T15:23:46;27.80;50.20
74657;DHT22;63185;45.642;13.764;2022-10-17T15:26:25;27.50;50.70
74657;DHT22;63185;45.642;13.764;2022-10-17T15:28:53;27.00;52.10
74657;DHT22;63185;45.642;13.764;2022-10-17T15:31:21;26.20;54.20
74657;DHT22;63185;45.642;13.764;2022-10-17T15:33:47;25.80;55.50
74657;DHT22;63185;45.642;13.764;2022-10-17T15:36:25;25.70;55.60
74657;DHT22;63185;45.642;13.764;2022-10-17T15:38:53;25.60;56.70
74657;DHT22;63185;45.642;13.764;2022-10-17T15:41:21;25.40;57.50
74657;DHT22;63185;45.642;13.764;2022-10-17T15:43:47;25.30;57.60
74657;DHT22;63185;45.642;13.764;2022-10-17T15:46:21;24.60;59.50
74657;DHT22;63185;45.642;13.764;2022-10-17T15:48:48;24.40;60.50
74657;DHT22;63185;45.642;13.764;2022-10-17T15:51:15;24.30;60.80
74657;DHT22;63185;45.642;13.764;2022-10-17T15:53:41;24.10;61.40
74657;DHT22;63185;45.642;13.764;2022-10-17T15:56:07;23.70;62.50
74657;DHT22;63185;45.642;13.764;2022-10-17T15:58:39;23.50;63.50
74657;DHT22;63185;45.642;13.764;2022-10-17T16:01:05;23.20;64.30
74657;DHT22;63185;45.642;13.764;2022-10-17T16:03:32;23.10;64.90
74657;DHT22;63185;45.642;13.764;2022-10-17T16:05:58;22.90;65.70
74657;DHT22;63185;45.642;13.764;2022-10-17T16:08:24;22.70;66.30
74657;DHT22;63185;45.642;13.764;2022-10-17T16:10:51;22.60;66.90
74657;DHT22;63185;45.642;13.764;2022-10-17T16:13:20;22.30;67.80
74657;DHT22;63185;45.642;13.764;2022-10-17T16:15:46;22.10;68.10
74657;DHT22;63185;45.642;13.764;2022-10-17T16:18:12;22.10;68.70
74657;DHT22;63185;45.642;13.764;2022-10-17T16:20:38;21.90;69.10
74657;DHT22;63185;45.642;13.764;2022-10-17T16:23:04;21.70;69.90
74657;DHT22;63185;45.642;13.764;2022-10-17T16:25:31;21.60;70.30
74657;DHT22;63185;45.642;13.764;2022-10-17T16:27:58;21.50;70.60
74657;DHT22;63185;45.642;13.764;2022-10-17T16:30:25;21.50;71.10
74657;DHT22;63185;45.642;13.764;2022-10-17T16:32:52;21.40;71.30
74657;DHT22;63185;45.642;13.764;2022-10-17T16:35:21;21.40;71.30
74657;DHT22;63185;45.642;13.764;2022-10-17T16:37:47;21.30;71.80
74657;DHT22;63185;45.642;13.764;2022-10-17T16:40:14;21.30;72.00
74657;DHT22;63185;45.642;13.764;2022-10-17T16:42:40;21.30;72.20
74657;DHT22;63185;45.642;13.764;2022-10-17T16:45:06;21.20;72.50
74657;DHT22;63185;45.642;13.764;2022-10-17T16:47:32;21.20;72.70
74657;DHT22;63185;45.642;13.764;2022-10-17T16:49:57;21.20;72.90
74657;DHT22;63185;45.642;13.764;2022-10-17T16:52:23;21.10;73.00
74657;DHT22;63185;45.642;13.764;2022-10-17T16:54:49;21.10;73.00
74657;DHT22;63185;45.642;13.764;2022-10-17T16:57:15;21.10;73.20
74657;DHT22;63185;45.642;13.764;2022-10-17T16:59:41;21.00;73.40
74657;DHT22;63185;45.642;13.764;2022-10-17T17:02:09;21.10;73.60
74657;DHT22;63185;45.642;13.764;2022-10-17T17:04:35;21.00;73.70
74657;DHT22;63185;45.642;13.764;2022-10-17T17:07:01;21.00;73.60
74657;DHT22;63185;45.642;13.764;2022-10-17T17:09:27;20.90;73.60
74657;DHT22;63185;45.642;13.764;2022-10-17T17:11:52;20.90;73.70
74657;DHT22;63185;45.642;13.764;2022-10-17T17:14:18;20.90;73.70
74657;DHT22;63185;45.642;13.764;2022-10-17T17:16:44;20.80;73.70
74657;DHT22;63185;45.642;13.764;2022-10-17T17:19:11;20.80;73.90
74657;DHT22;63185;45.642;13.764;2022-10-17T17:21:38;20.70;74.00